createdAt,value
2018-01-27T00:00:30.985Z,16.00
2018-01-27T00:02:59.251Z,11.20
2018-01-27T00:05:27.477Z,12.93
2018-01-27T00:07:56.764Z,18.17
2018-01-27T00:10:26.580Z,16.90
2018-01-27T00:12:54.808Z,13.20
2018-01-27T07:00:54.612Z,31.77
2018-01-27T07:03:23.617Z,33.13
2018-01-27T07:05:51.849Z,35.27
2018-01-27T07:08:20.056Z,33.40
2018-01-27T07:10:49.064Z,28.00
2018-01-27T07:13:17.272Z,34.03
2018-01-27T07:15:46.344Z,33.90
2018-01-27T07:18:14.552Z,38.93
2018-01-27T07:20:42.788Z,33.23
2018-01-27T07:23:12.249Z,33.00
2018-01-27T07:25:40.484Z,37.70
2018-01-27T07:28:08.692Z,36.10
2018-01-27T07:30:36.916Z,29.00
2018-01-27T07:33:05.152Z,29.47
2018-01-27T07:35:33.398Z,27.43
2018-01-27T07:38:01.632Z,36.30
2018-01-27T07:40:29.868Z,49.77
2018-01-27T07:42:58.184Z,31.47
2018-01-27T07:45:26.425Z,38.90
2018-01-27T07:47:56.800Z,48.50
2018-01-27T07:50:26.845Z,43.93
2018-01-27T07:52:55.182Z,38.77
2018-01-27T07:55:23.456Z,42.33
2018-01-27T07:57:52.385Z,47.10
2018-01-27T08:00:20.663Z,50.13
2018-01-27T08:02:48.872Z,47.40
2018-01-27T08:05:17.096Z,42.50
2018-01-27T08:07:45.376Z,47.23
2018-01-27T08:10:13.604Z,46.47
2018-01-27T08:12:41.839Z,34.57
2018-01-27T08:15:10.084Z,40.07
2018-01-27T08:17:38.289Z,30.93
2018-01-27T08:20:07.525Z,28.83
2018-01-27T08:22:35.732Z,30.30
2018-01-27T08:25:04.009Z,34.70
2018-01-27T08:27:32.223Z,39.77
2018-01-27T08:30:00.464Z,34.70
2018-01-27T08:32:28.736Z,34.57
2018-01-27T08:34:57.009Z,32.17
2018-01-27T08:37:25.987Z,31.50
2018-01-27T08:39:54.990Z,31.83
2018-01-27T08:42:23.988Z,35.07
2018-01-27T08:44:52.993Z,34.00
2018-01-27T08:47:21.537Z,29.63
2018-01-27T08:49:49.863Z,30.63
2018-01-27T08:52:18.120Z,30.13
2018-01-27T08:54:47.179Z,34.80
2018-01-27T08:57:15.514Z,31.03
2018-01-27T08:59:43.780Z,28.20
2018-01-27T09:02:11.988Z,29.03
2018-01-27T09:04:40.240Z,29.47
2018-01-27T09:07:08.448Z,29.20
2018-01-27T09:09:36.656Z,24.60
2018-01-27T09:12:05.668Z,25.90
2018-01-27T09:14:33.876Z,28.40
2018-01-27T09:17:02.117Z,29.63
2018-01-27T09:19:30.735Z,28.43
2018-01-27T09:21:58.948Z,27.60
2018-01-27T09:24:27.275Z,29.47
2018-01-27T09:26:55.502Z,27.03
2018-01-27T09:29:23.739Z,28.13
2018-01-27T09:31:52.001Z,34.40
2018-01-27T09:34:20.280Z,30.10
2018-01-27T09:36:48.504Z,28.80
2018-01-27T09:39:16.740Z,31.10
2018-01-27T09:41:45.854Z,36.77
2018-01-27T09:44:14.089Z,36.33
2018-01-27T09:46:42.304Z,32.60
2018-01-27T09:49:10.550Z,32.83
2018-01-27T09:51:38.805Z,32.57
2018-01-27T09:54:07.824Z,29.07
2018-01-27T09:56:36.024Z,30.03
2018-01-27T09:59:04.261Z,27.60
2018-01-27T10:01:32.524Z,30.93
2018-01-27T10:04:01.528Z,30.77
2018-01-27T10:06:29.761Z,28.17
2018-01-27T10:08:57.997Z,29.90
2018-01-27T10:11:26.209Z,26.53
2018-01-27T10:13:54.451Z,28.53
2018-01-27T10:16:22.653Z,33.30
2018-01-27T10:18:50.889Z,34.80
2018-01-27T10:21:19.101Z,26.73
2018-01-27T10:23:47.322Z,27.60
2018-01-27T10:26:15.605Z,22.47
2018-01-27T10:28:43.878Z,26.20
2018-01-27T10:31:12.329Z,26.33
2018-01-27T10:33:40.565Z,33.97
2018-01-27T10:36:08.781Z,34.07
2018-01-27T10:38:37.012Z,40.93
2018-01-27T10:41:05.220Z,30.93
2018-01-27T10:43:33.476Z,32.17
2018-01-27T10:46:01.680Z,36.37
2018-01-27T10:48:29.929Z,31.43
2018-01-27T10:50:58.236Z,33.07
2018-01-27T10:53:26.418Z,28.87
2018-01-27T10:55:54.645Z,32.10
2018-01-27T10:58:22.962Z,31.23
2018-01-27T11:00:51.134Z,34.10
2018-01-27T11:03:19.445Z,31.97
2018-01-27T11:05:47.720Z,30.90
2018-01-27T11:08:15.933Z,38.07
2018-01-27T11:10:44.168Z,30.57
2018-01-27T11:13:13.168Z,28.90
2018-01-27T11:15:41.381Z,32.07
2018-01-27T11:18:09.627Z,29.97
2018-01-27T11:20:37.837Z,32.27
2018-01-27T11:23:06.173Z,31.83
2018-01-27T11:25:34.381Z,29.53
2018-01-27T11:28:02.593Z,30.90
2018-01-27T11:30:30.832Z,33.40
2018-01-27T11:32:59.042Z,24.17
2018-01-27T11:35:27.283Z,24.03
2018-01-27T11:37:55.779Z,31.87
2018-01-27T11:40:23.993Z,26.73
2018-01-27T11:42:53.002Z,24.47
2018-01-27T11:45:21.281Z,28.30
2018-01-27T11:47:49.493Z,25.70
2018-01-27T11:50:17.728Z,28.17
2018-01-27T11:52:46.885Z,24.10
2018-01-27T11:55:15.205Z,22.57
2018-01-27T11:57:43.448Z,26.67
2018-01-27T12:00:11.693Z,27.23
2018-01-27T12:02:39.932Z,25.03
2018-01-27T12:05:08.144Z,27.83
2018-01-27T12:07:36.485Z,24.13
2018-01-27T12:10:04.765Z,29.77
2018-01-27T12:12:33.009Z,35.20
2018-01-27T12:15:01.246Z,28.80
2018-01-27T12:17:29.509Z,25.90
2018-01-27T12:19:57.720Z,24.90
2018-01-27T12:22:25.956Z,23.63
2018-01-27T12:24:54.184Z,23.33
2018-01-27T12:27:23.218Z,25.30
2018-01-27T12:29:51.432Z,23.70
2018-01-27T12:32:19.673Z,25.53
2018-01-27T12:34:47.881Z,27.90
2018-01-27T12:37:16.113Z,29.53
2018-01-27T12:39:44.384Z,25.43
2018-01-27T12:42:12.621Z,34.43
2018-01-27T12:44:40.862Z,29.87
2018-01-27T12:47:09.092Z,30.07
2018-01-27T12:49:38.084Z,23.93
2018-01-27T12:52:07.252Z,22.53
2018-01-27T12:54:35.502Z,27.20
2018-01-27T12:57:03.697Z,30.63
2018-01-27T12:59:31.932Z,24.10
2018-01-27T13:02:00.224Z,27.73
2018-01-27T13:04:28.455Z,22.03
2018-01-27T13:06:56.673Z,22.80
2018-01-27T13:09:24.913Z,26.43
2018-01-27T13:11:54.753Z,23.87
2018-01-27T13:14:22.980Z,17.30
2018-01-27T13:16:51.185Z,16.87
2018-01-27T13:19:20.268Z,24.93
2018-01-27T13:21:48.438Z,15.87
2018-01-27T13:24:16.664Z,19.93
2018-01-27T13:26:44.926Z,15.93
2018-01-27T13:29:13.993Z,19.73
2018-01-27T13:31:42.307Z,23.27
2018-01-27T13:34:10.611Z,17.03
2018-01-27T13:36:38.882Z,17.33
2018-01-27T13:39:07.196Z,29.03
2018-01-27T13:41:35.396Z,18.90
2018-01-27T13:44:04.397Z,28.27
2018-01-27T13:46:32.607Z,28.50
2018-01-27T13:49:00.953Z,18.80
2018-01-27T13:51:29.202Z,25.53
2018-01-27T13:53:57.496Z,29.30
2018-01-27T13:56:26.497Z,29.13
2018-01-27T13:58:54.699Z,29.27
2018-01-27T14:01:22.943Z,29.83
2018-01-27T14:03:52.131Z,28.60
2018-01-27T14:06:21.309Z,25.20
2018-01-27T14:08:49.714Z,21.77
2018-01-27T14:11:17.968Z,29.47
2018-01-27T14:13:47.792Z,30.27
2018-01-27T14:16:16.853Z,25.53
2018-01-27T14:18:45.863Z,28.37
2018-01-27T14:21:14.097Z,31.10
2018-01-27T14:23:42.304Z,27.60
2018-01-27T14:26:10.624Z,24.57
2018-01-27T14:28:38.937Z,29.77
2018-01-27T14:31:07.263Z,27.80
2018-01-27T14:33:35.551Z,28.27
2018-01-27T14:36:03.831Z,24.93
2018-01-27T14:38:32.903Z,27.03
2018-01-27T14:41:01.141Z,30.10
2018-01-27T14:43:29.399Z,29.33
2018-01-27T14:45:57.648Z,24.10
2018-01-27T14:48:25.912Z,30.10
2018-01-27T14:50:54.129Z,27.50
2018-01-27T14:53:22.347Z,26.57
2018-01-27T14:55:50.584Z,32.70
2018-01-27T14:58:18.799Z,29.50
2018-01-27T15:00:47.008Z,29.17
2018-01-27T15:03:15.323Z,28.87
2018-01-27T15:05:43.528Z,31.60
2018-01-27T15:08:11.833Z,25.90
2018-01-27T15:10:40.141Z,25.07
2018-01-27T15:13:08.414Z,30.40
2018-01-27T15:15:36.631Z,31.53
2018-01-27T15:18:04.840Z,30.57
2018-01-27T15:20:33.127Z,32.40
2018-01-27T15:23:01.384Z,33.60
2018-01-27T15:25:29.634Z,31.30
2018-01-27T15:27:57.907Z,30.87
2018-01-27T15:30:26.104Z,32.63
2018-01-27T15:32:55.089Z,22.60
2018-01-27T15:35:23.319Z,27.67
2018-01-27T15:37:51.544Z,35.60
2018-01-27T15:40:20.540Z,27.33
2018-01-27T15:42:49.517Z,28.77
2018-01-27T15:45:17.989Z,27.47
2018-01-27T15:47:46.213Z,30.77
2018-01-27T15:50:14.452Z,44.33
2018-01-27T15:52:43.429Z,47.03
2018-01-27T15:55:11.813Z,25.93
2018-01-27T15:57:39.986Z,32.90
2018-01-27T16:00:08.264Z,28.63
2018-01-27T16:02:36.474Z,31.27
2018-01-27T16:05:04.744Z,35.37
2018-01-27T16:07:32.980Z,34.23
2018-01-27T16:10:01.296Z,32.57
2018-01-27T16:12:29.644Z,33.20
2018-01-27T16:14:57.921Z,35.93
2018-01-27T16:17:26.105Z,33.37
2018-01-27T16:19:54.343Z,34.13
2018-01-27T16:22:22.552Z,31.57
2018-01-27T16:24:50.788Z,31.73
2018-01-27T16:27:19.028Z,39.67
2018-01-27T16:29:47.305Z,31.43
2018-01-27T16:32:15.512Z,37.27
2018-01-27T16:34:43.933Z,35.97
2018-01-27T16:37:12.734Z,38.03
2018-01-27T16:39:41.737Z,34.93
2018-01-27T16:42:10.775Z,34.37
2018-01-27T16:44:39.006Z,34.97
2018-01-27T16:47:07.267Z,30.03
2018-01-27T16:49:35.464Z,30.80
2018-01-27T16:52:03.685Z,28.60
2018-01-27T16:54:31.903Z,34.83
2018-01-27T16:57:02.044Z,36.83
2018-01-27T16:59:31.021Z,36.80
2018-01-27T17:02:00.084Z,34.17
2018-01-27T17:04:28.364Z,30.87
2018-01-27T17:06:56.611Z,38.73
2018-01-27T17:09:24.838Z,29.83
2018-01-27T17:11:53.864Z,32.40
2018-01-27T17:14:22.115Z,41.83
2018-01-27T17:16:51.130Z,39.03
2018-01-27T17:19:19.402Z,41.70
2018-01-27T17:21:47.648Z,37.70
2018-01-27T17:24:16.612Z,34.43
2018-01-27T17:26:44.896Z,32.03
2018-01-27T17:29:13.499Z,36.80
2018-01-27T17:31:42.525Z,29.23
2018-01-27T17:34:10.797Z,41.23
2018-01-27T17:36:39.039Z,36.83
2018-01-27T17:39:07.312Z,37.90
2018-01-27T17:41:35.528Z,38.40
2018-01-27T17:44:03.792Z,35.93
2018-01-27T17:46:32.876Z,35.50
2018-01-27T17:49:01.164Z,36.87
2018-01-27T17:51:30.253Z,40.40
2018-01-27T17:53:58.461Z,39.17
2018-01-27T17:56:26.681Z,50.07
2018-01-27T17:58:55.695Z,56.87
2018-01-27T18:01:24.000Z,77.20
2018-01-27T18:03:52.535Z,74.00
2018-01-27T18:06:20.779Z,70.57
2018-01-27T18:08:49.152Z,55.27
2018-01-27T18:11:17.428Z,56.90
2018-01-27T18:13:45.738Z,58.43
2018-01-27T18:16:13.912Z,45.00
2018-01-27T18:18:42.124Z,44.43
2018-01-27T18:21:10.398Z,47.33
2018-01-27T18:23:38.676Z,41.03
2018-01-27T18:26:07.648Z,48.33
2018-01-27T18:28:36.652Z,38.93
2018-01-27T18:31:05.624Z,35.97
2018-01-27T18:33:34.679Z,35.73
2018-01-27T18:36:02.968Z,33.00
2018-01-27T18:38:31.255Z,34.10
2018-01-27T18:40:59.515Z,32.37
2018-01-27T18:43:27.743Z,39.17
2018-01-27T18:45:55.992Z,35.97
2018-01-27T18:48:25.742Z,42.97
2018-01-27T18:50:54.049Z,36.97
2018-01-27T18:53:22.980Z,37.63
2018-01-27T18:55:51.332Z,43.73
2018-01-27T18:58:19.656Z,42.33
2018-01-27T19:00:48.756Z,40.57
2018-01-27T19:03:17.807Z,44.53
2018-01-27T19:05:46.053Z,33.30
2018-01-27T19:08:14.319Z,39.77
2018-01-27T19:10:42.824Z,33.07
2018-01-27T19:13:11.100Z,39.93
2018-01-27T19:15:39.918Z,35.57
2018-01-27T19:18:08.228Z,37.93
2018-01-27T19:20:36.547Z,39.80
2018-01-27T19:23:04.833Z,29.47
2018-01-27T19:25:33.106Z,30.63
2018-01-27T19:28:01.359Z,40.00
2018-01-27T19:30:29.648Z,41.90
2018-01-27T19:32:57.942Z,38.43
2018-01-27T19:35:26.192Z,36.90
2018-01-27T19:37:54.552Z,37.87
2018-01-27T19:40:22.985Z,39.47
2018-01-27T19:42:51.248Z,43.47
2018-01-27T19:45:19.524Z,43.17
2018-01-27T19:47:47.767Z,42.13
2018-01-27T19:50:15.994Z,35.27
2018-01-27T19:52:44.200Z,42.73
2018-01-27T19:55:12.463Z,40.00
2018-01-27T19:57:41.532Z,43.43
2018-01-27T20:00:09.804Z,33.63
2018-01-27T20:02:38.053Z,44.73
2018-01-27T20:05:06.584Z,38.20
2018-01-27T20:07:34.764Z,34.80
2018-01-27T20:10:03.820Z,30.67
2018-01-27T20:12:32.410Z,36.97
2018-01-27T20:15:00.684Z,32.73
2018-01-27T20:17:28.931Z,30.47
2018-01-27T20:19:57.188Z,34.27
2018-01-27T20:22:26.178Z,33.47
2018-01-27T20:24:55.195Z,39.03
2018-01-27T20:27:23.679Z,28.20
2018-01-27T20:29:51.924Z,34.00
2018-01-27T20:32:20.221Z,33.53
2018-01-27T20:34:49.222Z,35.50
2018-01-27T20:37:17.500Z,26.93
2018-01-27T20:39:45.816Z,28.53
2018-01-27T20:42:14.040Z,41.63
2018-01-27T20:44:42.367Z,40.07
2018-01-27T20:47:10.620Z,42.90
2018-01-27T20:49:38.888Z,24.40
2018-01-27T20:52:07.177Z,29.37
2018-01-27T20:54:35.420Z,30.90
2018-01-27T20:57:03.713Z,29.83
2018-01-27T20:59:31.959Z,26.37
2018-01-27T21:02:00.239Z,30.60
2018-01-27T21:04:29.456Z,36.70
2018-01-27T21:06:57.772Z,24.60
2018-01-27T21:09:26.016Z,28.23
2018-01-27T21:11:55.023Z,24.47
2018-01-27T21:14:23.353Z,26.47
2018-01-27T21:16:51.572Z,29.80
2018-01-27T21:19:19.876Z,26.80
2018-01-27T21:21:48.151Z,22.37
2018-01-27T21:24:16.424Z,27.50
2018-01-27T21:26:44.672Z,24.53
2018-01-27T21:29:12.941Z,27.07
2018-01-27T21:31:41.262Z,21.00
2018-01-27T21:34:09.488Z,21.50
2018-01-27T21:36:37.747Z,27.50
2018-01-27T21:39:05.995Z,24.67
2018-01-27T21:41:34.372Z,22.57
2018-01-27T21:44:02.629Z,26.20
2018-01-27T21:46:30.919Z,31.97
2018-01-27T21:48:59.213Z,28.23
2018-01-27T21:51:27.444Z,27.10
2018-01-27T21:53:55.751Z,26.90
2018-01-27T21:56:23.996Z,26.10
2018-01-27T21:58:52.222Z,21.47
2018-01-27T22:01:21.983Z,35.47
2018-01-27T22:03:50.274Z,27.17
2018-01-27T22:06:18.465Z,26.00
2018-01-27T22:08:47.056Z,23.07
2018-01-27T22:11:15.332Z,25.17
2018-01-27T22:13:44.588Z,28.80
2018-01-27T22:16:13.628Z,31.20
2018-01-27T22:18:41.863Z,30.77
2018-01-27T22:21:10.950Z,27.10
2018-01-27T22:23:40.043Z,31.03
2018-01-27T22:26:08.299Z,29.13
2018-01-27T22:28:36.575Z,33.27
2018-01-27T22:31:04.815Z,22.40
2018-01-27T22:33:33.336Z,27.80
2018-01-27T22:36:01.688Z,27.67
2018-01-27T22:38:29.965Z,27.83
2018-01-27T22:40:58.330Z,39.90
2018-01-27T22:43:26.608Z,33.73
2018-01-27T22:45:54.841Z,32.60
2018-01-27T22:48:23.072Z,39.97
2018-01-27T22:50:51.289Z,32.90
2018-01-27T22:53:20.331Z,36.90
2018-01-27T22:55:48.549Z,41.03
2018-01-27T22:58:17.552Z,26.47
2018-01-27T23:00:51.406Z,26.70
2018-01-27T23:03:19.714Z,26.03
2018-01-27T23:05:47.987Z,28.70
2018-01-27T23:08:16.454Z,28.87
2018-01-27T23:10:44.672Z,31.37
2018-01-27T23:13:12.957Z,29.10
2018-01-27T23:15:44.576Z,28.00
2018-01-27T23:18:12.953Z,28.40
2018-01-27T23:20:41.172Z,40.23
2018-01-27T23:23:09.436Z,32.20
2018-01-27T23:25:37.672Z,31.57
2018-01-27T23:28:07.497Z,35.60
2018-01-27T23:30:35.758Z,27.00
2018-01-27T23:33:04.672Z,32.33
2018-01-27T23:35:33.719Z,39.43
2018-01-27T23:38:02.017Z,29.10
2018-01-27T23:40:30.319Z,28.27
2018-01-27T23:42:58.497Z,37.10
2018-01-27T23:45:26.762Z,27.73
2018-01-27T23:47:54.988Z,29.10
2018-01-27T23:50:23.325Z,29.17
2018-01-27T23:52:51.542Z,32.23
2018-01-27T23:55:19.765Z,27.83
2018-01-27T23:57:47.983Z,33.70
